sensor_id;sensor_type;location;lat;lon;timestamp;pressure;altitude;pressure_sealevel;temperature
25514;BMP180;48128;54.242;10.280;2023-04-24T02:25:23;99468.00;;;10.80
25514;BMP180;48128;54.242;10.280;2023-04-24T02:27:50;99468.00;;;10.80
25514;BMP180;48128;54.242;10.280;2023-04-24T02:30:17;99468.00;;;10.80
25514;BMP180;48128;54.242;10.280;2023-04-24T02:32:44;99457.00;;;10.80
25514;BMP180;48128;54.242;10.280;2023-04-24T02:35:11;99452.00;;;10.80
25514;BMP180;48128;54.242;10.280;2023-04-24T02:37:38;99453.00;;;10.70
25514;BMP180;48128;54.242;10.280;2023-04-24T02:40:06;99465.00;;;10.70
25514;BMP180;48128;54.242;10.280;2023-04-24T02:42:34;99459.00;;;10.70
25514;BMP180;48128;54.242;10.280;2023-04-24T02:45:01;99456.00;;;10.70
25514;BMP180;48128;54.242;10.280;2023-04-24T02:47:28;99461.00;;;10.70
25514;BMP180;48128;54.242;10.280;2023-04-24T02:49:55;99456.00;;;10.70
25514;BMP180;48128;54.242;10.280;2023-04-24T02:52:22;99454.00;;;10.70
25514;BMP180;48128;54.242;10.280;2023-04-24T02:54:48;99459.00;;;10.70
25514;BMP180;48128;54.242;10.280;2023-04-24T02:57:15;99460.00;;;10.80
25514;BMP180;48128;54.242;10.280;2023-04-24T02:59:42;99455.00;;;10.80
25514;BMP180;48128;54.242;10.280;2023-04-24T03:02:10;99452.00;;;10.80
25514;BMP180;48128;54.242;10.280;2023-04-24T03:04:37;99463.00;;;10.80
25514;BMP180;48128;54.242;10.280;2023-04-24T03:07:04;99456.00;;;10.90
25514;BMP180;48128;54.242;10.280;2023-04-24T03:09:31;99462.00;;;10.90
25514;BMP180;48128;54.242;10.280;2023-04-24T03:11:58;99464.00;;;10.90
25514;BMP180;48128;54.242;10.280;2023-04-24T03:14:25;99461.00;;;10.90
25514;BMP180;48128;54.242;10.280;2023-04-24T03:16:51;99461.00;;;10.90
25514;BMP180;48128;54.242;10.280;2023-04-24T03:19:18;99456.00;;;10.90
25514;BMP180;48128;54.242;10.280;2023-04-24T03:21:45;99458.00;;;10.90
25514;BMP180;48128;54.242;10.280;2023-04-24T03:24:12;99449.00;;;10.90
25514;BMP180;48128;54.242;10.280;2023-04-24T03:26:39;99450.00;;;10.90
25514;BMP180;48128;54.242;10.280;2023-04-24T03:29:06;99457.00;;;10.90
25514;BMP180;48128;54.242;10.280;2023-04-24T03:31:33;99455.00;;;10.80
25514;BMP180;48128;54.242;10.280;2023-04-24T03:34:00;99448.00;;;10.80
25514;BMP180;48128;54.242;10.280;2023-04-24T03:36:27;99472.00;;;10.80
25514;BMP180;48128;54.242;10.280;2023-04-24T03:38:54;99466.00;;;10.70
25514;BMP180;48128;54.242;10.280;2023-04-24T03:41:21;99471.00;;;10.70
25514;BMP180;48128;54.242;10.280;2023-04-24T03:43:49;99465.00;;;10.60
25514;BMP180;48128;54.242;10.280;2023-04-24T03:46:16;99453.00;;;10.60
25514;BMP180;48128;54.242;10.280;2023-04-24T03:48:43;99458.00;;;10.50
25514;BMP180;48128;54.242;10.280;2023-04-24T03:51:10;99450.00;;;10.50
25514;BMP180;48128;54.242;10.280;2023-04-24T03:53:36;99466.00;;;10.50
25514;BMP180;48128;54.242;10.280;2023-04-24T03:56:03;99466.00;;;10.40
25514;BMP180;48128;54.242;10.280;2023-04-24T03:58:30;99457.00;;;10.40
25514;BMP180;48128;54.242;10.280;2023-04-24T04:00:57;99461.00;;;10.40
25514;BMP180;48128;54.242;10.280;2023-04-24T04:03:24;99446.00;;;10.30
25514;BMP180;48128;54.242;10.280;2023-04-24T04:05:52;99450.00;;;10.30
25514;BMP180;48128;54.242;10.280;2023-04-24T04:08:19;99461.00;;;10.30
25514;BMP180;48128;54.242;10.280;2023-04-24T04:10:46;99461.00;;;10.30
25514;BMP180;48128;54.242;10.280;2023-04-24T04:13:13;99461.00;;;10.30
25514;BMP180;48128;54.242;10.280;2023-04-24T04:15:40;99464.00;;;10.30
25514;BMP180;48128;54.242;10.280;2023-04-24T04:18:07;99461.00;;;10.30
25514;BMP180;48128;54.242;10.280;2023-04-24T04:20:35;99459.00;;;10.30
25514;BMP180;48128;54.242;10.280;2023-04-24T04:23:02;99461.00;;;10.30
25514;BMP180;48128;54.242;10.280;2023-04-24T19:26:04;99739.00;;;7.80
25514;BMP180;48128;54.242;10.280;2023-04-24T19:28:34;99740.00;;;7.90
25514;BMP180;48128;54.242;10.280;2023-04-24T19:31:04;99758.00;;;7.80
25514;BMP180;48128;54.242;10.280;2023-04-24T19:33:32;99746.00;;;7.80
